sensor_id;sensor_type;location;lat;lon;timestamp;P1;durP1;ratioP1;P2;durP2;ratioP2
47659;SDS011;33403;43.608;1.458;2023-05-07T00:01:42;8.55;;;5.50;;
47659;SDS011;33403;43.608;1.458;2023-05-07T00:04:07;9.57;;;5.45;;
47659;SDS011;33403;43.608;1.458;2023-05-07T00:06:33;8.43;;;5.10;;
47659;SDS011;33403;43.608;1.458;2023-05-07T00:08:59;9.10;;;4.75;;
47659;SDS011;33403;43.608;1.458;2023-05-07T00:11:26;10.88;;;5.53;;
47659;SDS011;33403;43.608;1.458;2023-05-07T00:13:52;8.68;;;5.70;;
47659;SDS011;33403;43.608;1.458;2023-05-07T00:16:17;8.73;;;5.10;;
47659;SDS011;33403;43.608;1.458;2023-05-07T00:18:43;9.10;;;5.32;;
47659;SDS011;33403;43.608;1.458;2023-05-07T00:21:10;9.77;;;5.07;;
47659;SDS011;33403;43.608;1.458;2023-05-07T00:23:36;8.93;;;5.50;;
47659;SDS011;33403;43.608;1.458;2023-05-07T00:26:01;7.55;;;5.13;;
47659;SDS011;33403;43.608;1.458;2023-05-07T00:28:28;9.27;;;5.20;;
47659;SDS011;33403;43.608;1.458;2023-05-07T00:30:53;7.65;;;5.35;;
47659;SDS011;33403;43.608;1.458;2023-05-07T00:33:19;9.88;;;5.32;;
47659;SDS011;33403;43.608;1.458;2023-05-07T00:35:45;9.48;;;5.15;;
47659;SDS011;33403;43.608;1.458;2023-05-07T00:38:11;9.43;;;4.85;;
47659;SDS011;33403;43.608;1.458;2023-05-07T00:40:37;10.57;;;5.38;;
47659;SDS011;33403;43.608;1.458;2023-05-07T00:43:02;6.95;;;4.75;;
47659;SDS011;33403;43.608;1.458;2023-05-07T00:45:28;8.50;;;5.00;;
47659;SDS011;33403;43.608;1.458;2023-05-07T00:47:55;8.95;;;5.07;;
47659;SDS011;33403;43.608;1.458;2023-05-07T00:50:25;9.80;;;4.90;;
47659;SDS011;33403;43.608;1.458;2023-05-07T00:52:55;8.18;;;4.28;;
47659;SDS011;33403;43.608;1.458;2023-05-07T00:55:21;9.05;;;4.93;;
47659;SDS011;33403;43.608;1.458;2023-05-07T00:57:48;9.40;;;5.22;;
47659;SDS011;33403;43.608;1.458;2023-05-07T01:00:15;8.85;;;4.55;;
47659;SDS011;33403;43.608;1.458;2023-05-07T01:02:42;12.35;;;5.03;;
47659;SDS011;33403;43.608;1.458;2023-05-07T01:05:09;7.43;;;4.88;;
47659;SDS011;33403;43.608;1.458;2023-05-07T01:07:38;8.27;;;4.60;;
47659;SDS011;33403;43.608;1.458;2023-05-07T01:10:06;6.65;;;4.75;;
47659;SDS011;33403;43.608;1.458;2023-05-07T01:12:33;9.15;;;4.60;;
47659;SDS011;33403;43.608;1.458;2023-05-07T01:15:00;8.18;;;4.45;;
47659;SDS011;33403;43.608;1.458;2023-05-07T01:17:26;10.50;;;4.65;;
47659;SDS011;33403;43.608;1.458;2023-05-07T01:19:52;7.13;;;4.60;;
47659;SDS011;33403;43.608;1.458;2023-05-07T01:22:39;8.93;;;4.40;;
47659;SDS011;33403;43.608;1.458;2023-05-07T01:25:04;7.65;;;4.20;;
47659;SDS011;33403;43.608;1.458;2023-05-07T01:27:32;8.35;;;4.70;;
47659;SDS011;33403;43.608;1.458;2023-05-07T01:30:01;7.82;;;4.03;;
47659;SDS011;33403;43.608;1.458;2023-05-07T01:32:32;6.82;;;3.85;;
47659;SDS011;33403;43.608;1.458;2023-05-07T01:35:03;8.10;;;4.05;;
47659;SDS011;33403;43.608;1.458;2023-05-07T01:37:32;9.10;;;3.90;;
47659;SDS011;33403;43.608;1.458;2023-05-07T01:39:58;9.23;;;3.90;;
47659;SDS011;33403;43.608;1.458;2023-05-07T01:42:24;8.30;;;3.95;;
47659;SDS011;33403;43.608;1.458;2023-05-07T01:44:50;8.57;;;3.90;;
47659;SDS011;33403;43.608;1.458;2023-05-07T01:47:16;7.85;;;3.88;;
47659;SDS011;33403;43.608;1.458;2023-05-07T01:49:42;8.75;;;3.47;;
47659;SDS011;33403;43.608;1.458;2023-05-07T01:52:09;8.68;;;3.85;;
47659;SDS011;33403;43.608;1.458;2023-05-07T01:54:35;7.15;;;3.38;;
47659;SDS011;33403;43.608;1.458;2023-05-07T01:57:01;10.07;;;3.78;;
47659;SDS011;33403;43.608;1.458;2023-05-07T01:59:26;7.63;;;3.47;;
47659;SDS011;33403;43.608;1.458;2023-05-07T02:01:52;9.57;;;3.80;;
47659;SDS011;33403;43.608;1.458;2023-05-07T02:04:18;7.25;;;3.03;;
47659;SDS011;33403;43.608;1.458;2023-05-07T02:06:43;9.70;;;3.35;;
47659;SDS011;33403;43.608;1.458;2023-05-07T02:09:09;9.02;;;3.17;;
47659;SDS011;33403;43.608;1.458;2023-05-07T02:11:35;9.68;;;3.42;;
47659;SDS011;33403;43.608;1.458;2023-05-07T02:14:01;9.45;;;3.28;;
47659;SDS011;33403;43.608;1.458;2023-05-07T02:16:27;8.55;;;3.72;;
47659;SDS011;33403;43.608;1.458;2023-05-07T02:18:52;8.15;;;3.25;;
47659;SDS011;33403;43.608;1.458;2023-05-07T02:21:18;8.98;;;3.40;;
47659;SDS011;33403;43.608;1.458;2023-05-07T02:23:43;10.02;;;3.40;;
47659;SDS011;33403;43.608;1.458;2023-05-07T02:26:10;11.30;;;3.63;;
47659;SDS011;33403;43.608;1.458;2023-05-07T02:28:36;9.23;;;3.67;;
47659;SDS011;33403;43.608;1.458;2023-05-07T02:31:04;8.38;;;3.58;;
47659;SDS011;33403;43.608;1.458;2023-05-07T02:33:30;8.52;;;3.42;;
47659;SDS011;33403;43.608;1.458;2023-05-07T02:35:56;7.28;;;3.33;;
47659;SDS011;33403;43.608;1.458;2023-05-07T02:38:22;8.88;;;3.58;;
47659;SDS011;33403;43.608;1.458;2023-05-07T02:40:48;7.70;;;3.50;;
47659;SDS011;33403;43.608;1.458;2023-05-07T02:43:14;8.32;;;3.58;;
47659;SDS011;33403;43.608;1.458;2023-05-07T02:45:39;8.82;;;3.40;;
47659;SDS011;33403;43.608;1.458;2023-05-07T02:48:05;9.63;;;3.28;;
47659;SDS011;33403;43.608;1.458;2023-05-07T02:50:31;8.45;;;3.45;;
47659;SDS011;33403;43.608;1.458;2023-05-07T02:52:57;11.55;;;3.67;;
47659;SDS011;33403;43.608;1.458;2023-05-07T02:55:23;8.32;;;3.50;;
47659;SDS011;33403;43.608;1.458;2023-05-07T02:57:49;10.80;;;3.80;;
47659;SDS011;33403;43.608;1.458;2023-05-07T03:00:15;9.35;;;3.55;;
47659;SDS011;33403;43.608;1.458;2023-05-07T03:02:43;8.82;;;3.58;;
47659;SDS011;33403;43.608;1.458;2023-05-07T03:05:09;6.15;;;3.42;;
47659;SDS011;33403;43.608;1.458;2023-05-07T03:07:35;8.00;;;3.83;;
47659;SDS011;33403;43.608;1.458;2023-05-07T03:10:01;5.78;;;3.00;;
47659;SDS011;33403;43.608;1.458;2023-05-07T03:12:27;8.43;;;3.28;;
47659;SDS011;33403;43.608;1.458;2023-05-07T03:14:53;9.75;;;3.28;;
47659;SDS011;33403;43.608;1.458;2023-05-07T03:17:18;11.90;;;5.68;;
47659;SDS011;33403;43.608;1.458;2023-05-07T03:19:45;18.65;;;9.50;;
47659;SDS011;33403;43.608;1.458;2023-05-07T03:22:10;18.17;;;9.13;;
47659;SDS011;33403;43.608;1.458;2023-05-07T03:24:36;17.85;;;10.48;;
47659;SDS011;33403;43.608;1.458;2023-05-07T03:27:02;45.65;;;28.33;;
47659;SDS011;33403;43.608;1.458;2023-05-07T03:29:27;56.88;;;31.80;;
47659;SDS011;33403;43.608;1.458;2023-05-07T03:31:53;38.40;;;21.70;;
47659;SDS011;33403;43.608;1.458;2023-05-07T03:34:19;33.10;;;20.25;;
47659;SDS011;33403;43.608;1.458;2023-05-07T03:36:48;29.65;;;16.50;;
47659;SDS011;33403;43.608;1.458;2023-05-07T03:39:14;23.42;;;11.18;;
47659;SDS011;33403;43.608;1.458;2023-05-07T03:41:39;9.20;;;4.10;;
47659;SDS011;33403;43.608;1.458;2023-05-07T03:44:05;10.15;;;3.83;;
47659;SDS011;33403;43.608;1.458;2023-05-07T03:46:31;9.70;;;3.70;;
47659;SDS011;33403;43.608;1.458;2023-05-07T03:48:57;8.48;;;3.53;;
47659;SDS011;33403;43.608;1.458;2023-05-07T03:51:23;9.05;;;3.88;;
47659;SDS011;33403;43.608;1.458;2023-05-07T03:53:49;7.88;;;3.42;;
47659;SDS011;33403;43.608;1.458;2023-05-07T03:56:17;11.30;;;3.38;;
47659;SDS011;33403;43.608;1.458;2023-05-07T03:58:43;8.13;;;3.30;;
47659;SDS011;33403;43.608;1.458;2023-05-07T04:01:09;14.50;;;3.67;;
47659;SDS011;33403;43.608;1.458;2023-05-07T04:03:35;9.02;;;3.53;;
47659;SDS011;33403;43.608;1.458;2023-05-07T04:06:01;9.73;;;3.55;;
47659;SDS011;33403;43.608;1.458;2023-05-07T04:08:27;13.32;;;3.50;;
47659;SDS011;33403;43.608;1.458;2023-05-07T04:10:56;10.10;;;3.75;;
47659;SDS011;33403;43.608;1.458;2023-05-07T04:13:22;9.35;;;4.13;;
47659;SDS011;33403;43.608;1.458;2023-05-07T04:15:48;8.15;;;3.40;;
47659;SDS011;33403;43.608;1.458;2023-05-07T04:18:14;9.80;;;3.60;;
47659;SDS011;33403;43.608;1.458;2023-05-07T04:20:40;9.38;;;3.20;;
47659;SDS011;33403;43.608;1.458;2023-05-07T04:23:06;9.35;;;3.33;;
47659;SDS011;33403;43.608;1.458;2023-05-07T04:25:32;8.93;;;3.42;;
47659;SDS011;33403;43.608;1.458;2023-05-07T04:27:58;11.93;;;3.58;;
47659;SDS011;33403;43.608;1.458;2023-05-07T04:30:24;7.88;;;3.55;;
47659;SDS011;33403;43.608;1.458;2023-05-07T04:32:50;8.30;;;3.42;;
47659;SDS011;33403;43.608;1.458;2023-05-07T04:35:16;11.23;;;3.80;;
47659;SDS011;33403;43.608;1.458;2023-05-07T04:37:42;10.57;;;3.42;;
47659;SDS011;33403;43.608;1.458;2023-05-07T04:40:08;10.02;;;3.60;;
47659;SDS011;33403;43.608;1.458;2023-05-07T04:42:34;10.98;;;3.40;;
47659;SDS011;33403;43.608;1.458;2023-05-07T04:45:00;10.20;;;3.22;;
47659;SDS011;33403;43.608;1.458;2023-05-07T04:47:26;8.55;;;2.88;;
47659;SDS011;33403;43.608;1.458;2023-05-07T04:49:52;7.57;;;3.30;;
47659;SDS011;33403;43.608;1.458;2023-05-07T04:52:18;7.30;;;3.38;;
47659;SDS011;33403;43.608;1.458;2023-05-07T04:54:43;8.95;;;3.13;;
47659;SDS011;33403;43.608;1.458;2023-05-07T04:57:09;10.05;;;3.35;;
47659;SDS011;33403;43.608;1.458;2023-05-07T04:59:34;9.90;;;3.63;;
47659;SDS011;33403;43.608;1.458;2023-05-07T05:02:00;10.13;;;3.38;;
47659;SDS011;33403;43.608;1.458;2023-05-07T05:04:26;7.75;;;3.25;;
47659;SDS011;33403;43.608;1.458;2023-05-07T05:06:52;9.75;;;3.80;;
47659;SDS011;33403;43.608;1.458;2023-05-07T05:09:17;10.05;;;3.55;;
47659;SDS011;33403;43.608;1.458;2023-05-07T05:11:43;8.43;;;3.30;;
47659;SDS011;33403;43.608;1.458;2023-05-07T05:14:09;9.38;;;3.45;;
47659;SDS011;33403;43.608;1.458;2023-05-07T05:16:34;8.50;;;3.35;;
47659;SDS011;33403;43.608;1.458;2023-05-07T05:19:01;9.05;;;3.63;;
47659;SDS011;33403;43.608;1.458;2023-05-07T05:21:27;10.18;;;3.50;;
47659;SDS011;33403;43.608;1.458;2023-05-07T05:23:52;8.15;;;3.15;;
47659;SDS011;33403;43.608;1.458;2023-05-07T05:26:18;10.43;;;3.50;;
47659;SDS011;33403;43.608;1.458;2023-05-07T05:28:46;8.32;;;3.42;;
47659;SDS011;33403;43.608;1.458;2023-05-07T05:31:12;12.68;;;3.88;;
47659;SDS011;33403;43.608;1.458;2023-05-07T05:33:39;11.02;;;3.60;;
47659;SDS011;33403;43.608;1.458;2023-05-07T05:36:05;8.98;;;3.50;;
47659;SDS011;33403;43.608;1.458;2023-05-07T05:38:31;12.30;;;3.58;;
47659;SDS011;33403;43.608;1.458;2023-05-07T05:40:57;9.73;;;3.28;;
47659;SDS011;33403;43.608;1.458;2023-05-07T05:43:22;9.52;;;3.88;;
47659;SDS011;33403;43.608;1.458;2023-05-07T05:45:48;7.55;;;3.58;;
47659;SDS011;33403;43.608;1.458;2023-05-07T05:48:13;11.50;;;4.03;;
47659;SDS011;33403;43.608;1.458;2023-05-07T05:50:39;10.55;;;3.72;;
47659;SDS011;33403;43.608;1.458;2023-05-07T05:53:07;10.98;;;3.47;;
47659;SDS011;33403;43.608;1.458;2023-05-07T05:55:32;11.32;;;4.00;;
47659;SDS011;33403;43.608;1.458;2023-05-07T05:57:59;10.40;;;3.72;;
47659;SDS011;33403;43.608;1.458;2023-05-07T06:00:25;10.50;;;3.70;;
47659;SDS011;33403;43.608;1.458;2023-05-07T06:02:51;13.48;;;3.53;;
47659;SDS011;33403;43.608;1.458;2023-05-07T06:05:17;11.00;;;3.60;;
47659;SDS011;33403;43.608;1.458;2023-05-07T06:07:43;9.13;;;3.70;;
47659;SDS011;33403;43.608;1.458;2023-05-07T06:10:08;10.02;;;3.42;;
47659;SDS011;33403;43.608;1.458;2023-05-07T06:12:34;10.68;;;4.00;;
47659;SDS011;33403;43.608;1.458;2023-05-07T06:15:00;6.90;;;3.20;;
47659;SDS011;33403;43.608;1.458;2023-05-07T06:17:26;7.85;;;3.30;;
47659;SDS011;33403;43.608;1.458;2023-05-07T06:19:52;10.45;;;3.55;;
47659;SDS011;33403;43.608;1.458;2023-05-07T06:22:18;9.68;;;3.35;;
47659;SDS011;33403;43.608;1.458;2023-05-07T06:24:43;10.80;;;3.63;;
47659;SDS011;33403;43.608;1.458;2023-05-07T06:27:09;12.30;;;3.70;;
47659;SDS011;33403;43.608;1.458;2023-05-07T06:29:35;6.95;;;3.28;;
47659;SDS011;33403;43.608;1.458;2023-05-07T06:32:10;9.75;;;3.55;;
47659;SDS011;33403;43.608;1.458;2023-05-07T06:34:37;10.02;;;3.40;;
47659;SDS011;33403;43.608;1.458;2023-05-07T06:37:03;11.48;;;3.67;;
47659;SDS011;33403;43.608;1.458;2023-05-07T06:39:30;11.00;;;3.72;;
47659;SDS011;33403;43.608;1.458;2023-05-07T06:41:56;9.88;;;3.72;;
47659;SDS011;33403;43.608;1.458;2023-05-07T06:44:21;10.25;;;3.38;;
47659;SDS011;33403;43.608;1.458;2023-05-07T06:46:47;9.20;;;3.05;;
47659;SDS011;33403;43.608;1.458;2023-05-07T06:49:13;9.98;;;3.63;;
47659;SDS011;33403;43.608;1.458;2023-05-07T06:51:39;9.02;;;3.33;;
47659;SDS011;33403;43.608;1.458;2023-05-07T06:54:04;8.10;;;3.28;;
47659;SDS011;33403;43.608;1.458;2023-05-07T06:56:30;9.05;;;3.38;;
47659;SDS011;33403;43.608;1.458;2023-05-07T06:58:56;12.40;;;3.25;;
47659;SDS011;33403;43.608;1.458;2023-05-07T07:01:22;7.38;;;3.20;;
47659;SDS011;33403;43.608;1.458;2023-05-07T07:03:48;10.60;;;3.70;;
47659;SDS011;33403;43.608;1.458;2023-05-07T07:06:14;12.35;;;3.50;;
47659;SDS011;33403;43.608;1.458;2023-05-07T07:08:39;8.38;;;3.58;;
47659;SDS011;33403;43.608;1.458;2023-05-07T07:11:05;9.07;;;3.45;;
47659;SDS011;33403;43.608;1.458;2023-05-07T07:13:31;9.68;;;3.53;;
47659;SDS011;33403;43.608;1.458;2023-05-07T07:15:57;9.88;;;3.42;;
47659;SDS011;33403;43.608;1.458;2023-05-07T07:18:22;8.68;;;3.45;;
47659;SDS011;33403;43.608;1.458;2023-05-07T07:20:48;12.30;;;3.47;;
47659;SDS011;33403;43.608;1.458;2023-05-07T07:23:14;12.48;;;3.90;;
47659;SDS011;33403;43.608;1.458;2023-05-07T07:25:40;10.70;;;3.35;;
47659;SDS011;33403;43.608;1.458;2023-05-07T07:28:05;11.85;;;3.80;;
47659;SDS011;33403;43.608;1.458;2023-05-07T07:30:31;8.02;;;3.83;;
47659;SDS011;33403;43.608;1.458;2023-05-07T07:32:57;10.48;;;3.63;;
47659;SDS011;33403;43.608;1.458;2023-05-07T07:35:27;11.98;;;3.65;;
47659;SDS011;33403;43.608;1.458;2023-05-07T07:37:54;11.88;;;3.85;;
47659;SDS011;33403;43.608;1.458;2023-05-07T07:40:19;10.05;;;3.67;;
47659;SDS011;33403;43.608;1.458;2023-05-07T07:42:45;12.02;;;4.20;;
47659;SDS011;33403;43.608;1.458;2023-05-07T07:45:11;11.40;;;3.95;;
47659;SDS011;33403;43.608;1.458;2023-05-07T07:47:37;7.70;;;3.50;;
47659;SDS011;33403;43.608;1.458;2023-05-07T07:50:03;9.73;;;3.42;;
47659;SDS011;33403;43.608;1.458;2023-05-07T07:52:29;10.68;;;3.85;;
47659;SDS011;33403;43.608;1.458;2023-05-07T07:54:54;12.13;;;4.10;;
47659;SDS011;33403;43.608;1.458;2023-05-07T07:57:20;9.98;;;3.25;;
47659;SDS011;33403;43.608;1.458;2023-05-07T07:59:46;11.25;;;3.58;;
47659;SDS011;33403;43.608;1.458;2023-05-07T08:02:11;14.70;;;3.60;;
47659;SDS011;33403;43.608;1.458;2023-05-07T08:04:37;12.55;;;3.45;;
47659;SDS011;33403;43.608;1.458;2023-05-07T08:07:03;9.15;;;3.20;;
47659;SDS011;33403;43.608;1.458;2023-05-07T08:09:29;12.18;;;3.40;;
47659;SDS011;33403;43.608;1.458;2023-05-07T08:11:54;9.13;;;3.40;;
47659;SDS011;33403;43.608;1.458;2023-05-07T08:14:20;12.98;;;3.97;;
47659;SDS011;33403;43.608;1.458;2023-05-07T08:16:45;10.00;;;3.42;;
47659;SDS011;33403;43.608;1.458;2023-05-07T08:19:11;9.23;;;3.58;;
47659;SDS011;33403;43.608;1.458;2023-05-07T08:21:40;10.38;;;3.53;;
47659;SDS011;33403;43.608;1.458;2023-05-07T08:24:06;11.82;;;3.35;;
47659;SDS011;33403;43.608;1.458;2023-05-07T08:26:31;10.98;;;3.40;;
47659;SDS011;33403;43.608;1.458;2023-05-07T08:28:57;10.18;;;3.53;;
47659;SDS011;33403;43.608;1.458;2023-05-07T08:31:22;12.20;;;3.78;;
47659;SDS011;33403;43.608;1.458;2023-05-07T08:33:48;11.77;;;3.47;;
47659;SDS011;33403;43.608;1.458;2023-05-07T08:36:14;11.65;;;3.70;;
47659;SDS011;33403;43.608;1.458;2023-05-07T08:38:40;13.27;;;3.47;;
47659;SDS011;33403;43.608;1.458;2023-05-07T08:41:09;8.98;;;3.17;;
47659;SDS011;33403;43.608;1.458;2023-05-07T08:43:36;12.18;;;3.63;;
47659;SDS011;33403;43.608;1.458;2023-05-07T08:46:02;10.70;;;3.47;;
47659;SDS011;33403;43.608;1.458;2023-05-07T08:48:30;10.77;;;3.35;;
47659;SDS011;33403;43.608;1.458;2023-05-07T08:50:58;11.57;;;3.70;;
47659;SDS011;33403;43.608;1.458;2023-05-07T08:53:24;8.52;;;3.67;;
47659;SDS011;33403;43.608;1.458;2023-05-07T08:55:52;15.20;;;3.70;;
47659;SDS011;33403;43.608;1.458;2023-05-07T08:58:18;8.13;;;2.97;;
47659;SDS011;33403;43.608;1.458;2023-05-07T09:00:43;10.02;;;3.20;;
47659;SDS011;33403;43.608;1.458;2023-05-07T09:03:09;8.45;;;3.55;;
47659;SDS011;33403;43.608;1.458;2023-05-07T09:05:39;10.32;;;3.10;;
47659;SDS011;33403;43.608;1.458;2023-05-07T09:08:05;10.32;;;3.30;;
47659;SDS011;33403;43.608;1.458;2023-05-07T09:10:34;8.70;;;3.47;;
47659;SDS011;33403;43.608;1.458;2023-05-07T09:13:00;10.20;;;3.20;;
47659;SDS011;33403;43.608;1.458;2023-05-07T09:15:26;10.60;;;3.33;;
47659;SDS011;33403;43.608;1.458;2023-05-07T09:17:53;7.10;;;2.80;;
47659;SDS011;33403;43.608;1.458;2023-05-07T09:20:18;9.70;;;3.20;;
47659;SDS011;33403;43.608;1.458;2023-05-07T09:22:44;9.18;;;3.20;;
47659;SDS011;33403;43.608;1.458;2023-05-07T09:25:10;7.72;;;3.25;;
47659;SDS011;33403;43.608;1.458;2023-05-07T09:27:36;9.70;;;3.50;;
47659;SDS011;33403;43.608;1.458;2023-05-07T09:30:08;10.98;;;3.38;;
47659;SDS011;33403;43.608;1.458;2023-05-07T09:32:34;9.65;;;3.63;;
47659;SDS011;33403;43.608;1.458;2023-05-07T09:35:03;11.98;;;3.58;;
47659;SDS011;33403;43.608;1.458;2023-05-07T09:37:30;9.57;;;3.53;;
47659;SDS011;33403;43.608;1.458;2023-05-07T09:39:57;10.00;;;3.35;;
47659;SDS011;33403;43.608;1.458;2023-05-07T09:42:23;8.13;;;3.40;;
47659;SDS011;33403;43.608;1.458;2023-05-07T09:44:50;9.55;;;3.33;;
47659;SDS011;33403;43.608;1.458;2023-05-07T09:47:18;9.88;;;3.63;;
47659;SDS011;33403;43.608;1.458;2023-05-07T09:49:46;10.57;;;3.20;;
47659;SDS011;33403;43.608;1.458;2023-05-07T09:52:13;10.02;;;3.20;;
47659;SDS011;33403;43.608;1.458;2023-05-07T09:54:39;11.15;;;3.40;;
47659;SDS011;33403;43.608;1.458;2023-05-07T09:57:10;9.68;;;3.20;;
47659;SDS011;33403;43.608;1.458;2023-05-07T09:59:37;11.68;;;3.30;;
47659;SDS011;33403;43.608;1.458;2023-05-07T10:02:04;9.88;;;3.38;;
47659;SDS011;33403;43.608;1.458;2023-05-07T10:04:31;11.80;;;3.60;;
47659;SDS011;33403;43.608;1.458;2023-05-07T10:06:57;9.25;;;3.05;;
47659;SDS011;33403;43.608;1.458;2023-05-07T10:09:25;9.57;;;3.38;;
47659;SDS011;33403;43.608;1.458;2023-05-07T10:11:51;9.68;;;3.17;;
47659;SDS011;33403;43.608;1.458;2023-05-07T10:14:19;9.40;;;3.55;;
47659;SDS011;33403;43.608;1.458;2023-05-07T10:16:45;8.05;;;3.30;;
47659;SDS011;33403;43.608;1.458;2023-05-07T10:19:12;11.07;;;3.83;;
47659;SDS011;33403;43.608;1.458;2023-05-07T10:21:40;8.77;;;3.90;;
47659;SDS011;33403;43.608;1.458;2023-05-07T10:24:20;9.38;;;3.20;;
47659;SDS011;33403;43.608;1.458;2023-05-07T10:26:51;7.07;;;3.05;;
47659;SDS011;33403;43.608;1.458;2023-05-07T10:29:20;11.85;;;3.88;;
47659;SDS011;33403;43.608;1.458;2023-05-07T10:32:14;11.98;;;3.30;;
47659;SDS011;33403;43.608;1.458;2023-05-07T10:34:48;9.35;;;3.40;;
47659;SDS011;33403;43.608;1.458;2023-05-07T10:37:18;9.52;;;3.50;;
47659;SDS011;33403;43.608;1.458;2023-05-07T10:39:44;11.15;;;3.72;;
47659;SDS011;33403;43.608;1.458;2023-05-07T10:42:11;10.85;;;3.60;;
47659;SDS011;33403;43.608;1.458;2023-05-07T10:44:37;10.00;;;3.38;;
47659;SDS011;33403;43.608;1.458;2023-05-07T10:47:06;7.97;;;3.22;;
47659;SDS011;33403;43.608;1.458;2023-05-07T10:52:19;9.35;;;3.47;;
47659;SDS011;33403;43.608;1.458;2023-05-07T10:54:48;11.55;;;3.13;;
47659;SDS011;33403;43.608;1.458;2023-05-07T10:57:39;9.98;;;3.10;;
47659;SDS011;33403;43.608;1.458;2023-05-07T11:03:10;11.45;;;3.20;;
47659;SDS011;33403;43.608;1.458;2023-05-07T11:05:35;10.63;;;3.17;;
47659;SDS011;33403;43.608;1.458;2023-05-07T11:08:02;12.07;;;3.10;;
47659;SDS011;33403;43.608;1.458;2023-05-07T11:10:48;8.57;;;3.08;;
47659;SDS011;33403;43.608;1.458;2023-05-07T11:13:13;8.57;;;3.05;;
47659;SDS011;33403;43.608;1.458;2023-05-07T11:15:47;9.20;;;3.25;;
47659;SDS011;33403;43.608;1.458;2023-05-07T11:18:16;9.27;;;2.80;;
47659;SDS011;33403;43.608;1.458;2023-05-07T11:20:58;9.25;;;3.10;;
47659;SDS011;33403;43.608;1.458;2023-05-07T11:26:09;7.25;;;3.03;;
47659;SDS011;33403;43.608;1.458;2023-05-07T11:28:37;9.70;;;3.00;;
47659;SDS011;33403;43.608;1.458;2023-05-07T11:31:07;7.28;;;3.17;;
47659;SDS011;33403;43.608;1.458;2023-05-07T11:33:33;11.70;;;3.58;;
47659;SDS011;33403;43.608;1.458;2023-05-07T11:36:02;9.43;;;3.67;;
47659;SDS011;33403;43.608;1.458;2023-05-07T11:38:28;8.70;;;3.17;;
47659;SDS011;33403;43.608;1.458;2023-05-07T11:40:56;9.50;;;3.05;;
47659;SDS011;33403;43.608;1.458;2023-05-07T11:43:22;9.50;;;3.47;;
47659;SDS011;33403;43.608;1.458;2023-05-07T11:45:48;9.48;;;3.00;;
47659;SDS011;33403;43.608;1.458;2023-05-07T11:48:14;8.68;;;3.03;;
47659;SDS011;33403;43.608;1.458;2023-05-07T11:53:40;10.88;;;3.25;;
47659;SDS011;33403;43.608;1.458;2023-05-07T11:56:13;7.50;;;2.97;;
47659;SDS011;33403;43.608;1.458;2023-05-07T11:58:40;7.40;;;2.67;;
47659;SDS011;33403;43.608;1.458;2023-05-07T12:01:07;9.07;;;3.10;;
47659;SDS011;33403;43.608;1.458;2023-05-07T12:03:37;8.57;;;2.80;;
47659;SDS011;33403;43.608;1.458;2023-05-07T12:06:07;9.25;;;2.80;;
47659;SDS011;33403;43.608;1.458;2023-05-07T12:08:35;8.50;;;2.75;;
47659;SDS011;33403;43.608;1.458;2023-05-07T12:11:02;10.20;;;3.45;;
47659;SDS011;33403;43.608;1.458;2023-05-07T12:13:28;7.78;;;2.90;;
47659;SDS011;33403;43.608;1.458;2023-05-07T12:15:55;7.32;;;2.50;;
47659;SDS011;33403;43.608;1.458;2023-05-07T12:18:21;6.97;;;2.50;;
47659;SDS011;33403;43.608;1.458;2023-05-07T12:20:48;8.32;;;2.67;;
47659;SDS011;33403;43.608;1.458;2023-05-07T12:23:15;8.68;;;2.65;;
47659;SDS011;33403;43.608;1.458;2023-05-07T12:25:41;6.32;;;2.45;;
47659;SDS011;33403;43.608;1.458;2023-05-07T12:28:15;6.85;;;2.30;;
47659;SDS011;33403;43.608;1.458;2023-05-07T12:30:42;12.57;;;2.80;;
47659;SDS011;33403;43.608;1.458;2023-05-07T12:33:09;7.85;;;2.75;;
47659;SDS011;33403;43.608;1.458;2023-05-07T12:35:36;9.10;;;2.53;;
47659;SDS011;33403;43.608;1.458;2023-05-07T12:38:08;6.97;;;2.45;;
47659;SDS011;33403;43.608;1.458;2023-05-07T12:43:07;7.65;;;2.40;;
47659;SDS011;33403;43.608;1.458;2023-05-07T12:45:41;7.03;;;2.45;;
47659;SDS011;33403;43.608;1.458;2023-05-07T12:48:07;7.10;;;2.30;;
47659;SDS011;33403;43.608;1.458;2023-05-07T12:50:35;6.22;;;2.30;;
47659;SDS011;33403;43.608;1.458;2023-05-07T12:53:00;6.82;;;2.40;;
47659;SDS011;33403;43.608;1.458;2023-05-07T12:55:39;7.95;;;2.60;;
47659;SDS011;33403;43.608;1.458;2023-05-07T13:00:51;8.82;;;2.45;;
47659;SDS011;33403;43.608;1.458;2023-05-07T13:03:28;8.63;;;2.42;;
47659;SDS011;33403;43.608;1.458;2023-05-07T13:05:55;5.65;;;2.00;;
47659;SDS011;33403;43.608;1.458;2023-05-07T13:08:30;8.52;;;2.33;;
47659;SDS011;33403;43.608;1.458;2023-05-07T13:11:03;6.30;;;2.22;;
47659;SDS011;33403;43.608;1.458;2023-05-07T13:13:30;6.82;;;2.30;;
47659;SDS011;33403;43.608;1.458;2023-05-07T13:15:56;10.20;;;2.13;;
47659;SDS011;33403;43.608;1.458;2023-05-07T13:18:23;6.30;;;2.40;;
47659;SDS011;33403;43.608;1.458;2023-05-07T13:20:50;6.35;;;2.20;;
47659;SDS011;33403;43.608;1.458;2023-05-07T13:23:16;6.15;;;2.30;;
47659;SDS011;33403;43.608;1.458;2023-05-07T13:25:42;4.72;;;2.08;;
47659;SDS011;33403;43.608;1.458;2023-05-07T13:28:08;5.93;;;2.20;;
47659;SDS011;33403;43.608;1.458;2023-05-07T13:30:34;5.82;;;2.13;;
47659;SDS011;33403;43.608;1.458;2023-05-07T13:32:59;6.93;;;2.10;;
47659;SDS011;33403;43.608;1.458;2023-05-07T13:35:25;7.63;;;2.22;;
47659;SDS011;33403;43.608;1.458;2023-05-07T13:37:51;4.25;;;1.95;;
47659;SDS011;33403;43.608;1.458;2023-05-07T13:40:17;8.15;;;2.10;;
47659;SDS011;33403;43.608;1.458;2023-05-07T13:42:44;5.78;;;2.13;;
47659;SDS011;33403;43.608;1.458;2023-05-07T13:45:10;4.00;;;1.90;;
47659;SDS011;33403;43.608;1.458;2023-05-07T13:47:35;5.43;;;2.00;;
47659;SDS011;33403;43.608;1.458;2023-05-07T13:50:01;5.93;;;2.33;;
47659;SDS011;33403;43.608;1.458;2023-05-07T13:52:27;6.38;;;2.10;;
47659;SDS011;33403;43.608;1.458;2023-05-07T13:54:52;6.40;;;2.33;;
47659;SDS011;33403;43.608;1.458;2023-05-07T13:57:20;5.15;;;2.30;;
47659;SDS011;33403;43.608;1.458;2023-05-07T13:59:45;4.72;;;2.00;;
47659;SDS011;33403;43.608;1.458;2023-05-07T14:02:11;4.82;;;2.30;;
47659;SDS011;33403;43.608;1.458;2023-05-07T14:04:37;4.90;;;2.17;;
47659;SDS011;33403;43.608;1.458;2023-05-07T14:07:03;5.97;;;2.50;;
47659;SDS011;33403;43.608;1.458;2023-05-07T14:09:28;6.68;;;2.30;;
47659;SDS011;33403;43.608;1.458;2023-05-07T14:11:54;5.15;;;2.08;;
47659;SDS011;33403;43.608;1.458;2023-05-07T14:14:20;7.05;;;2.10;;
47659;SDS011;33403;43.608;1.458;2023-05-07T14:16:45;6.70;;;2.30;;
47659;SDS011;33403;43.608;1.458;2023-05-07T14:19:11;4.85;;;2.08;;
47659;SDS011;33403;43.608;1.458;2023-05-07T14:21:37;7.93;;;2.35;;
47659;SDS011;33403;43.608;1.458;2023-05-07T14:24:03;5.28;;;1.83;;
47659;SDS011;33403;43.608;1.458;2023-05-07T14:26:30;8.45;;;2.35;;
47659;SDS011;33403;43.608;1.458;2023-05-07T14:28:56;8.57;;;2.22;;
47659;SDS011;33403;43.608;1.458;2023-05-07T14:31:23;6.53;;;2.50;;
47659;SDS011;33403;43.608;1.458;2023-05-07T14:33:49;5.32;;;1.92;;
47659;SDS011;33403;43.608;1.458;2023-05-07T14:36:15;5.20;;;2.10;;
47659;SDS011;33403;43.608;1.458;2023-05-07T14:38:42;5.97;;;1.92;;
47659;SDS011;33403;43.608;1.458;2023-05-07T14:41:08;5.30;;;2.08;;
47659;SDS011;33403;43.608;1.458;2023-05-07T14:43:33;6.22;;;2.35;;
47659;SDS011;33403;43.608;1.458;2023-05-07T14:45:59;10.00;;;2.20;;
47659;SDS011;33403;43.608;1.458;2023-05-07T14:48:25;6.78;;;2.30;;
47659;SDS011;33403;43.608;1.458;2023-05-07T14:50:50;7.07;;;2.25;;
47659;SDS011;33403;43.608;1.458;2023-05-07T14:53:16;8.30;;;2.40;;
47659;SDS011;33403;43.608;1.458;2023-05-07T14:55:41;6.30;;;2.33;;
47659;SDS011;33403;43.608;1.458;2023-05-07T14:58:07;5.30;;;2.20;;